createdAt,value
2023-05-02T00:04:19.525Z,55.18
2023-05-02T00:09:23.559Z,55.52
2023-05-02T00:14:28.303Z,55.55
2023-05-02T00:19:31.551Z,55.74
2023-05-02T00:24:34.787Z,56.02
2023-05-02T00:29:38.232Z,56.01
2023-05-02T00:34:41.759Z,56.27
2023-05-02T00:40:08.398Z,56.53
2023-05-02T00:45:12.728Z,56.63
2023-05-02T00:50:18.104Z,56.65
2023-05-02T00:55:21.313Z,56.89
2023-05-02T01:00:31.646Z,57.08
2023-05-02T01:05:50.445Z,57.39
2023-05-02T01:11:13.312Z,57.35
2023-05-02T01:19:58.660Z,57.46
2023-05-02T01:25:21.190Z,57.34
2023-05-02T01:30:28.448Z,57.52
2023-05-02T01:35:36.003Z,57.68
2023-05-02T01:40:40.700Z,57.90
2023-05-02T01:45:45.994Z,58.14
2023-05-02T01:50:50.747Z,58.47
2023-05-02T01:55:55.854Z,58.60
2023-05-02T02:01:01.832Z,58.88
2023-05-02T02:06:06.896Z,58.60
2023-05-02T02:11:13.637Z,58.61
2023-05-02T02:16:24.947Z,59.08
2023-05-02T02:21:33.062Z,59.07
2023-05-02T02:26:37.852Z,59.04
2023-05-02T02:31:41.031Z,59.18
2023-05-02T02:36:51.406Z,58.99
2023-05-02T02:42:11.384Z,59.31
2023-05-02T02:47:42.945Z,59.44
2023-05-02T02:52:59.586Z,59.57
2023-05-02T02:58:17.830Z,59.91
2023-05-02T03:03:29.225Z,60.17
2023-05-02T03:08:50.658Z,60.47
2023-05-02T03:13:54.376Z,60.42
2023-05-02T03:18:58.615Z,60.79
2023-05-02T03:24:04.324Z,60.95
2023-05-02T03:29:08.398Z,60.99
2023-05-02T03:34:13.492Z,61.12
2023-05-02T03:39:17.613Z,61.03
2023-05-02T03:44:21.106Z,61.18
2023-05-02T03:49:24.329Z,61.24
2023-05-02T03:54:28.137Z,61.11
2023-05-02T03:59:35.651Z,61.33
2023-05-02T04:04:44.064Z,61.49
2023-05-02T04:09:50.413Z,61.91
2023-05-02T04:14:53.894Z,61.86
2023-05-02T04:20:03.152Z,61.99
2023-05-02T04:25:09.828Z,62.24
2023-05-02T04:30:16.111Z,62.18
2023-05-02T04:35:23.213Z,61.99
2023-05-02T04:40:26.576Z,61.92
2023-05-02T04:45:37.386Z,62.02
2023-05-02T04:50:46.754Z,62.05
2023-05-02T04:55:50.325Z,62.18
2023-05-02T05:00:55.008Z,61.58
2023-05-02T05:05:58.085Z,61.28
2023-05-02T05:11:02.419Z,61.25
2023-05-02T05:16:06.848Z,61.00
2023-05-02T05:21:11.538Z,60.76
2023-05-02T05:26:17.216Z,59.26
2023-05-02T05:31:25.107Z,58.28
2023-05-02T05:36:31.678Z,57.48
2023-05-02T05:41:36.064Z,56.21
2023-05-02T05:46:42.655Z,55.54
2023-05-02T05:51:47.995Z,53.27
2023-05-02T05:56:53.058Z,51.23
2023-05-02T06:01:57.804Z,51.14
2023-05-02T06:07:01.926Z,48.75
2023-05-02T06:12:06.362Z,47.19
2023-05-02T06:17:10.492Z,45.99
2023-05-02T06:22:14.300Z,44.97
2023-05-02T06:27:17.507Z,44.43
2023-05-02T06:32:21.999Z,44.03
2023-05-02T06:37:25.151Z,44.32
2023-05-02T06:42:28.380Z,44.76
2023-05-02T06:47:31.920Z,44.12
2023-05-02T06:52:35.708Z,43.85
2023-05-02T06:57:38.872Z,43.96
2023-05-02T07:02:42.285Z,43.42
2023-05-02T07:07:45.963Z,43.40
2023-05-02T07:12:49.175Z,42.96
2023-05-02T07:17:53.621Z,42.71
2023-05-02T07:22:57.102Z,42.52
2023-05-02T07:28:00.322Z,41.47
2023-05-02T07:33:03.574Z,41.17
2023-05-02T07:38:07.098Z,40.28
2023-05-02T07:43:11.277Z,40.34
2023-05-02T07:48:14.821Z,41.04
2023-05-02T07:53:18.267Z,40.96
2023-05-02T07:58:21.411Z,40.87
2023-05-02T08:03:24.759Z,42.37
2023-05-02T08:08:28.443Z,43.97
2023-05-02T08:13:31.660Z,41.06
2023-05-02T08:18:34.836Z,39.45
2023-05-02T08:23:38.077Z,38.78
2023-05-02T08:28:42.499Z,38.25
2023-05-02T08:33:48.519Z,38.66
2023-05-02T08:38:52.056Z,38.72
2023-05-02T08:43:56.734Z,38.79
2023-05-02T08:49:01.915Z,39.05
2023-05-02T08:54:10.003Z,39.14
2023-05-02T08:59:13.128Z,38.87
2023-05-02T09:04:18.574Z,39.18
2023-05-02T09:09:21.688Z,39.45
2023-05-02T09:14:24.900Z,39.86
2023-05-02T09:19:28.768Z,39.64
2023-05-02T09:24:32.841Z,39.71
2023-05-02T09:29:36.537Z,39.94
2023-05-02T09:34:42.380Z,40.12
2023-05-02T09:40:06.735Z,40.32
2023-05-02T09:45:20.856Z,40.32
2023-05-02T09:50:38.097Z,40.10
2023-05-02T09:55:43.711Z,40.08
2023-05-02T10:00:47.034Z,39.99
2023-05-02T10:05:51.086Z,40.00
2023-05-02T10:10:56.782Z,40.03
2023-05-02T10:16:05.311Z,40.10
2023-05-02T10:25:19.652Z,39.13
2023-05-02T10:30:24.390Z,38.42
2023-05-02T10:35:31.858Z,38.10
2023-05-02T10:40:42.763Z,37.64
2023-05-02T10:45:45.995Z,37.36
2023-05-02T11:25:31.795Z,33.95
2023-05-02T11:30:37.706Z,33.55
2023-05-02T11:35:43.664Z,32.95
2023-05-02T11:40:55.182Z,33.45
2023-05-02T11:46:00.470Z,33.87
2023-05-02T11:51:07.514Z,33.96
2023-05-02T11:56:10.952Z,34.72
2023-05-02T12:01:16.449Z,35.12
2023-05-02T12:06:20.500Z,35.06
2023-05-02T12:11:24.260Z,35.13
2023-05-02T12:16:27.601Z,34.68
2023-05-02T12:21:33.786Z,33.08
2023-05-02T12:26:37.022Z,32.80
2023-05-02T12:31:40.738Z,32.24
2023-05-02T12:36:45.603Z,31.84
2023-05-02T12:41:54.263Z,31.98
2023-05-02T12:47:01.592Z,32.55
2023-05-02T12:52:05.276Z,32.58
2023-05-02T12:57:08.894Z,32.73
2023-05-02T13:02:12.972Z,33.24
2023-05-02T13:07:16.143Z,33.56
2023-05-02T13:12:19.340Z,33.68
2023-05-02T13:17:22.813Z,33.70
2023-05-02T13:22:26.708Z,34.08
2023-05-02T13:27:29.919Z,35.97
2023-05-02T13:32:33.127Z,38.50
2023-05-02T13:37:36.350Z,41.84
2023-05-02T13:42:39.346Z,45.55
2023-05-02T13:47:42.407Z,47.81
2023-05-02T13:52:47.726Z,49.46
2023-05-02T13:57:52.013Z,50.59
2023-05-02T14:02:55.774Z,52.98
2023-05-02T14:07:58.899Z,54.77
2023-05-02T14:13:02.068Z,56.47
2023-05-02T14:18:05.147Z,57.88
2023-05-02T14:23:08.550Z,58.58
2023-05-02T14:28:12.136Z,59.67
2023-05-02T14:33:15.505Z,60.00
2023-05-02T14:38:18.509Z,60.40
2023-05-02T14:43:21.683Z,61.02
2023-05-02T14:48:25.004Z,61.66
2023-05-02T14:53:28.175Z,62.04
2023-05-02T14:58:31.195Z,62.77
2023-05-02T15:03:36.378Z,63.76
2023-05-02T15:08:45.040Z,64.31
2023-05-02T15:13:48.047Z,64.10
2023-05-02T15:18:51.123Z,64.91
2023-05-02T15:23:54.166Z,65.41
2023-05-02T15:28:57.756Z,66.01
2023-05-02T15:34:00.789Z,65.36
2023-05-02T15:39:07.332Z,64.95
2023-05-02T15:44:11.076Z,65.09
2023-05-02T15:49:14.363Z,65.80
2023-05-02T15:54:17.435Z,67.03
2023-05-02T15:59:21.041Z,67.78
2023-05-02T16:04:25.366Z,67.72
2023-05-02T16:09:31.374Z,67.78
2023-05-02T16:14:34.940Z,67.90
2023-05-02T16:19:38.088Z,67.98
2023-05-02T16:24:41.437Z,68.40
2023-05-02T16:29:44.397Z,68.11
2023-05-02T16:34:47.356Z,68.32
2023-05-02T16:39:50.599Z,68.93
2023-05-02T16:44:53.712Z,68.80
2023-05-02T16:49:58.544Z,68.75
2023-05-02T16:55:01.623Z,68.54
2023-05-02T17:00:05.684Z,68.22
2023-05-02T17:05:10.802Z,67.94
2023-05-02T17:10:13.778Z,68.43
2023-05-02T17:15:16.862Z,68.37
2023-05-02T17:20:20.670Z,68.53
2023-05-02T17:25:28.168Z,68.19
2023-05-02T17:30:34.105Z,68.05
2023-05-02T17:35:37.184Z,67.94
2023-05-02T17:40:40.500Z,68.18
2023-05-02T17:45:45.082Z,68.56
2023-05-02T17:50:50.157Z,68.97
2023-05-02T17:55:53.289Z,69.13
2023-05-02T18:00:57.014Z,69.30
2023-05-02T18:05:59.945Z,69.25
2023-05-02T18:11:03.627Z,69.44
2023-05-02T18:16:06.866Z,69.65
2023-05-02T18:21:10.546Z,69.97
2023-05-02T18:26:14.192Z,69.82
2023-05-02T18:31:17.965Z,69.79
2023-05-02T18:36:26.186Z,69.39
2023-05-02T18:41:29.400Z,69.28
2023-05-02T18:46:32.446Z,69.46
2023-05-02T18:51:35.843Z,69.34
2023-05-02T18:56:38.825Z,69.49
2023-05-02T19:01:41.808Z,69.60
2023-05-02T19:06:45.306Z,70.08
2023-05-02T19:11:48.410Z,70.12
2023-05-02T19:16:51.578Z,70.06
2023-05-02T19:21:54.530Z,70.07
2023-05-02T19:26:57.948Z,69.17
2023-05-02T19:32:01.146Z,68.15
2023-05-02T19:37:04.447Z,67.76
2023-05-02T19:42:07.628Z,67.45
2023-05-02T19:47:11.174Z,66.95
2023-05-02T19:52:14.137Z,67.00
2023-05-02T19:57:18.020Z,67.41
2023-05-02T20:02:21.975Z,67.72
2023-05-02T20:07:24.993Z,67.81
2023-05-02T20:12:27.971Z,67.72
2023-05-02T20:25:34.415Z,67.35
2023-05-02T20:30:39.232Z,67.31
2023-05-02T20:35:42.285Z,67.56
2023-05-02T20:40:45.791Z,67.80
2023-05-02T20:45:49.134Z,68.03
2023-05-02T20:50:55.188Z,68.23
2023-05-02T20:55:58.209Z,68.41
2023-05-02T21:01:01.278Z,68.43
2023-05-02T21:06:04.505Z,68.26
2023-05-02T21:11:14.674Z,67.78
2023-05-02T21:16:19.131Z,67.87
2023-05-02T21:21:22.962Z,68.28
2023-05-02T21:26:26.370Z,68.41
2023-05-02T21:31:30.193Z,68.57
2023-05-02T21:36:33.256Z,68.67
2023-05-02T21:41:36.820Z,68.74
2023-05-02T21:46:41.074Z,69.00
2023-05-02T21:51:44.234Z,69.20
2023-05-02T21:56:47.248Z,69.39
2023-05-02T22:01:50.586Z,69.66
2023-05-02T22:06:53.969Z,69.81
2023-05-02T22:11:58.069Z,69.93
2023-05-02T22:17:04.881Z,69.81
2023-05-02T22:22:08.150Z,69.51
2023-05-02T22:27:11.151Z,69.38
2023-05-02T22:32:14.169Z,69.26
2023-05-02T22:37:17.320Z,69.17
2023-05-02T22:42:20.882Z,69.26
2023-05-02T22:47:23.943Z,69.69
2023-05-02T22:52:30.120Z,69.95
2023-05-02T22:57:33.163Z,69.91
2023-05-02T23:02:36.923Z,69.84
2023-05-02T23:07:40.317Z,69.93
2023-05-02T23:12:43.528Z,70.01
2023-05-02T23:17:46.600Z,70.18
2023-05-02T23:25:30.442Z,70.50
2023-05-02T23:30:33.814Z,70.51
2023-05-02T23:35:37.137Z,70.31
2023-05-02T23:40:40.123Z,70.50
2023-05-02T23:45:43.247Z,70.65
2023-05-02T23:50:46.400Z,70.75
2023-05-02T23:55:49.479Z,70.78
